Time,TemperatureF,DewpointF,PressureIn,WindDirection,WindDirectionDegrees,WindSpeedMPH,WindSpeedGustMPH,Humidity,HourlyPrecipIn,Conditions,Clouds,dailyrainin,SolarRadiationWatts/m^2,SoftwareType,DateUTC
2013-06-02 00:21:00,41.0,27.0,-100.00,NW,313,4.0,5.0,56,0.00,,,0.00,0.000000,,2013-06-02 06:21:00,
2013-06-02 00:32:00,41.0,27.0,-100.00,NW,313,4.0,5.0,56,0.00,,,0.00,0.000000,,2013-06-02 06:32:00,
2013-06-02 00:42:00,41.0,27.0,-100.00,NW,313,4.0,5.0,56,0.00,,,0.00,0.000000,,2013-06-02 06:42:00,
2013-06-02 00:52:00,41.0,27.0,-100.00,NW,313,4.0,5.0,56,0.00,,,0.00,0.000000,,2013-06-02 06:52:00,
2013-06-02 01:21:00,39.0,26.0,-100.00,WNW,292,5.0,6.0,60,0.00,,,0.00,0.000000,,2013-06-02 07:21:00,
2013-06-02 01:32:00,39.0,26.0,-100.00,WNW,292,5.0,6.0,60,0.00,,,0.00,0.000000,,2013-06-02 07:32:00,
2013-06-02 01:42:00,39.0,26.0,-100.00,WNW,292,5.0,6.0,60,0.00,,,0.00,0.000000,,2013-06-02 07:42:00,
2013-06-02 01:52:00,39.0,26.0,-100.00,WNW,292,5.0,6.0,60,0.00,,,0.00,0.000000,,2013-06-02 07:52:00,
2013-06-02 02:21:00,38.0,27.0,-100.00,South,185,3.0,7.0,63,0.00,,,0.00,0.000000,,2013-06-02 08:21:00,
2013-06-02 02:32:00,38.0,27.0,-100.00,South,185,3.0,7.0,63,0.00,,,0.00,0.000000,,2013-06-02 08:32:00,
2013-06-02 02:42:00,38.0,27.0,-100.00,South,185,3.0,7.0,63,0.00,,,0.00,0.000000,,2013-06-02 08:42:00,
2013-06-02 02:52:00,38.0,27.0,-100.00,South,185,3.0,7.0,63,0.00,,,0.00,0.000000,,2013-06-02 08:52:00,
2013-06-02 03:21:00,35.0,27.0,-100.00,NNW,339,2.0,3.0,71,0.00,,,0.00,0.000000,,2013-06-02 09:21:00,
2013-06-02 03:33:00,35.0,27.0,-100.00,NNW,339,2.0,3.0,71,0.00,,,0.00,0.000000,,2013-06-02 09:33:00,
2013-06-02 03:42:00,35.0,27.0,-100.00,NNW,339,2.0,3.0,71,0.00,,,0.00,0.000000,,2013-06-02 09:42:00,
2013-06-02 03:53:00,35.0,27.0,-100.00,NNW,339,2.0,3.0,71,0.00,,,0.00,0.000000,,2013-06-02 09:53:00,
2013-06-02 04:22:00,34.0,26.0,-100.00,NNW,342,3.0,4.0,71,0.00,,,0.00,0.000000,,2013-06-02 10:22:00,
2013-06-02 04:32:00,34.0,26.0,-100.00,NNW,342,3.0,4.0,71,0.00,,,0.00,0.000000,,2013-06-02 10:32:00,
2013-06-02 04:42:00,34.0,26.0,-100.00,NNW,342,3.0,4.0,71,0.00,,,0.00,0.000000,,2013-06-02 10:42:00,
2013-06-02 04:52:00,34.0,26.0,-100.00,NNW,342,3.0,4.0,71,0.00,,,0.00,0.000000,,2013-06-02 10:52:00,
2013-06-02 05:22:00,33.0,26.0,-100.00,WSW,257,2.0,5.0,75,0.00,,,0.00,0.000000,,2013-06-02 11:22:00,
2013-06-02 05:32:00,33.0,26.0,-100.00,WSW,257,2.0,5.0,75,0.00,,,0.00,0.000000,,2013-06-02 11:32:00,
2013-06-02 05:42:00,33.0,26.0,-100.00,WSW,257,2.0,5.0,75,0.00,,,0.00,0.000000,,2013-06-02 11:42:00,
2013-06-02 05:52:00,33.0,26.0,-100.00,WSW,257,2.0,5.0,75,0.00,,,0.00,0.000000,,2013-06-02 11:52:00,
2013-06-02 06:21:00,33.0,26.0,-100.00,WNW,287,3.0,4.0,76,0.00,,,0.00,3.000000,,2013-06-02 12:21:00,
2013-06-02 06:32:00,33.0,26.0,-100.00,WNW,287,3.0,4.0,76,0.00,,,0.00,3.000000,,2013-06-02 12:32:00,
2013-06-02 06:42:00,33.0,26.0,-100.00,WNW,287,3.0,4.0,76,0.00,,,0.00,3.000000,,2013-06-02 12:42:00,
2013-06-02 06:52:00,33.0,26.0,-100.00,WNW,287,3.0,4.0,76,0.00,,,0.00,3.000000,,2013-06-02 12:52:00,
2013-06-02 07:21:00,41.0,29.0,-100.00,East,79,2.0,6.0,61,0.00,,,0.00,79.000000,,2013-06-02 13:21:00,
2013-06-02 07:32:00,41.0,29.0,-100.00,East,79,2.0,6.0,61,0.00,,,0.00,79.000000,,2013-06-02 13:32:00,
2013-06-02 07:42:00,41.0,29.0,-100.00,East,79,2.0,6.0,61,0.00,,,0.00,79.000000,,2013-06-02 13:42:00,
2013-06-02 07:52:00,41.0,29.0,-100.00,East,79,2.0,6.0,61,0.00,,,0.00,79.000000,,2013-06-02 13:52:00,
2013-06-02 08:21:00,45.0,29.0,-100.00,SE,132,3.0,5.0,53,0.00,,,0.00,312.000000,,2013-06-02 14:21:00,
2013-06-02 08:32:00,45.0,29.0,-100.00,SE,132,3.0,5.0,53,0.00,,,0.00,312.000000,,2013-06-02 14:32:00,
2013-06-02 08:42:00,45.0,29.0,-100.00,SE,132,3.0,5.0,53,0.00,,,0.00,312.000000,,2013-06-02 14:42:00,
2013-06-02 08:52:00,45.0,29.0,-100.00,SE,132,3.0,5.0,53,0.00,,,0.00,312.000000,,2013-06-02 14:52:00,
2013-06-02 09:21:00,52.0,31.0,-100.00,SE,125,4.0,7.0,44,0.00,,,0.00,514.000000,,2013-06-02 15:21:00,
2013-06-02 09:33:00,52.0,31.0,-100.00,SE,125,4.0,7.0,44,0.00,,,0.00,514.000000,,2013-06-02 15:33:00,
2013-06-02 09:43:00,52.0,31.0,-100.00,SE,125,4.0,7.0,44,0.00,,,0.00,514.000000,,2013-06-02 15:43:00,
2013-06-02 09:53:00,52.0,31.0,-100.00,SE,125,4.0,7.0,44,0.00,,,0.00,514.000000,,2013-06-02 15:53:00,
2013-06-02 10:23:00,57.0,31.0,-100.00,East,81,4.0,8.0,37,0.00,,,0.00,702.000000,,2013-06-02 16:23:00,
2013-06-02 10:33:00,57.0,31.0,-100.00,East,81,4.0,8.0,37,0.00,,,0.00,702.000000,,2013-06-02 16:33:00,
2013-06-02 10:42:00,57.0,31.0,-100.00,East,81,4.0,8.0,37,0.00,,,0.00,702.000000,,2013-06-02 16:42:00,
2013-06-02 10:52:00,57.0,31.0,-100.00,East,81,4.0,8.0,37,0.00,,,0.00,702.000000,,2013-06-02 16:52:00,
2013-06-02 11:23:00,63.0,-99.9,-100.00,ESE,111,6.0,-999.0,-999,0.00,,,0.00,,,2013-06-02 17:23:00,
2013-06-02 11:33:00,63.0,-99.9,-100.00,ESE,111,6.0,-999.0,-999,0.00,,,0.00,,,2013-06-02 17:33:00,
2013-06-02 11:42:00,63.0,-99.9,-100.00,ESE,111,6.0,-999.0,-999,0.00,,,0.00,,,2013-06-02 17:42:00,
2013-06-02 11:52:00,63.0,-99.9,-100.00,ESE,111,6.0,-999.0,-999,0.00,,,0.00,,,2013-06-02 17:52:00,
2013-06-02 12:21:00,68.0,22.0,-100.00,ENE,73,4.0,11.0,17,0.00,,,0.00,938.000000,,2013-06-02 18:21:00,
2013-06-02 12:32:00,68.0,22.0,-100.00,ENE,73,4.0,11.0,17,0.00,,,0.00,938.000000,,2013-06-02 18:32:00,
2013-06-02 12:42:00,68.0,22.0,-100.00,ENE,73,4.0,11.0,17,0.00,,,0.00,938.000000,,2013-06-02 18:42:00,
2013-06-02 12:52:00,68.0,22.0,-100.00,ENE,73,4.0,11.0,17,0.00,,,0.00,938.000000,,2013-06-02 18:52:00,
2013-06-02 13:21:00,70.0,17.0,-100.00,NW,313,8.0,19.0,13,0.00,,,0.00,1039.000000,,2013-06-02 19:21:00,
2013-06-02 13:32:00,70.0,17.0,-100.00,NW,313,8.0,19.0,13,0.00,,,0.00,1039.000000,,2013-06-02 19:32:00,
2013-06-02 13:42:00,70.0,17.0,-100.00,NW,313,8.0,19.0,13,0.00,,,0.00,1039.000000,,2013-06-02 19:42:00,
2013-06-02 13:52:00,70.0,17.0,-100.00,NW,313,8.0,19.0,13,0.00,,,0.00,1039.000000,,2013-06-02 19:52:00,
2013-06-02 14:22:00,69.0,14.0,-100.00,West,263,9.0,19.0,12,0.00,,,0.00,1057.000000,,2013-06-02 20:22:00,
2013-06-02 14:32:00,69.0,14.0,-100.00,West,263,9.0,19.0,12,0.00,,,0.00,1057.000000,,2013-06-02 20:32:00,
2013-06-02 14:42:00,69.0,14.0,-100.00,West,263,9.0,19.0,12,0.00,,,0.00,1057.000000,,2013-06-02 20:42:00,
2013-06-02 14:52:00,69.0,14.0,-100.00,West,263,9.0,19.0,12,0.00,,,0.00,1057.000000,,2013-06-02 20:52:00,
2013-06-02 15:21:00,70.0,11.0,-100.00,WSW,254,10.0,22.0,10,0.00,,,0.00,1003.000000,,2013-06-02 21:21:00,
2013-06-02 15:33:00,70.0,11.0,-100.00,WSW,254,10.0,22.0,10,0.00,,,0.00,1003.000000,,2013-06-02 21:33:00,
2013-06-02 15:42:00,70.0,11.0,-100.00,WSW,254,10.0,22.0,10,0.00,,,0.00,1003.000000,,2013-06-02 21:42:00,
2013-06-02 15:53:00,70.0,11.0,-100.00,WSW,254,10.0,22.0,10,0.00,,,0.00,1003.000000,,2013-06-02 21:53:00,
2013-06-02 16:23:00,70.0,13.0,-100.00,West,262,11.0,27.0,11,0.00,,,0.00,715.000000,,2013-06-02 22:23:00,
2013-06-02 16:33:00,70.0,13.0,-100.00,West,262,11.0,27.0,11,0.00,,,0.00,715.000000,,2013-06-02 22:33:00,
2013-06-02 16:42:00,70.0,13.0,-100.00,West,262,11.0,27.0,11,0.00,,,0.00,715.000000,,2013-06-02 22:42:00,
2013-06-02 16:52:00,70.0,13.0,-100.00,West,262,11.0,27.0,11,0.00,,,0.00,715.000000,,2013-06-02 22:52:00,
2013-06-02 17:22:00,68.0,12.0,-100.00,West,264,11.0,24.0,11,0.00,,,0.00,557.000000,,2013-06-02 23:22:00,
2013-06-02 17:32:00,68.0,12.0,-100.00,West,264,11.0,24.0,11,0.00,,,0.00,557.000000,,2013-06-02 23:32:00,
2013-06-02 17:42:00,68.0,12.0,-100.00,West,264,11.0,24.0,11,0.00,,,0.00,557.000000,,2013-06-02 23:42:00,
2013-06-02 17:52:00,68.0,12.0,-100.00,West,264,11.0,24.0,11,0.00,,,0.00,557.000000,,2013-06-02 23:52:00,
2013-06-02 18:22:00,66.0,10.0,-100.00,WNW,295,10.0,23.0,11,0.00,,,-99.99,360.000000,,2013-06-03 00:22:00,
2013-06-02 18:32:00,66.0,10.0,-100.00,WNW,295,10.0,23.0,11,0.00,,,-99.99,360.000000,,2013-06-03 00:32:00,
2013-06-02 18:42:00,66.0,10.0,-100.00,WNW,295,10.0,23.0,11,0.00,,,-99.99,360.000000,,2013-06-03 00:42:00,
2013-06-02 18:51:00,66.0,10.0,-100.00,WNW,295,10.0,23.0,11,0.00,,,-99.99,360.000000,,2013-06-03 00:51:00,
2013-06-02 19:11:00,63.0,11.0,-100.00,NW,309,9.0,21.0,13,0.00,,,0.00,220.000000,,2013-06-03 01:11:00,
2013-06-02 19:21:00,63.0,11.0,-100.00,NW,309,9.0,21.0,13,0.00,,,0.00,220.000000,,2013-06-03 01:21:00,
2013-06-02 19:32:00,63.0,11.0,-100.00,NW,309,9.0,21.0,13,0.00,,,0.00,220.000000,,2013-06-03 01:32:00,
2013-06-02 19:42:00,63.0,11.0,-100.00,NW,309,9.0,21.0,13,0.00,,,0.00,220.000000,,2013-06-03 01:42:00,
2013-06-02 19:52:00,63.0,11.0,-100.00,NW,309,9.0,21.0,13,0.00,,,0.00,220.000000,,2013-06-03 01:52:00,
2013-06-02 20:22:00,61.0,13.0,-100.00,NW,312,6.0,14.0,15,0.00,,,0.00,83.000000,,2013-06-03 02:22:00,
2013-06-02 20:32:00,61.0,13.0,-100.00,NW,312,6.0,14.0,15,0.00,,,0.00,83.000000,,2013-06-03 02:32:00,
2013-06-02 20:42:00,61.0,13.0,-100.00,NW,312,6.0,14.0,15,0.00,,,0.00,83.000000,,2013-06-03 02:42:00,
2013-06-02 20:52:00,61.0,13.0,-100.00,NW,312,6.0,14.0,15,0.00,,,0.00,83.000000,,2013-06-03 02:52:00,
2013-06-02 21:22:00,57.0,15.0,-100.00,West,260,7.0,10.0,19,0.00,,,0.00,13.000000,,2013-06-03 03:22:00,
2013-06-02 21:33:00,57.0,15.0,-100.00,West,260,7.0,10.0,19,0.00,,,0.00,13.000000,,2013-06-03 03:33:00,
2013-06-02 21:43:00,57.0,15.0,-100.00,West,260,7.0,10.0,19,0.00,,,0.00,13.000000,,2013-06-03 03:43:00,
2013-06-02 21:53:00,57.0,15.0,-100.00,West,260,7.0,10.0,19,0.00,,,0.00,13.000000,,2013-06-03 03:53:00,
2013-06-02 22:23:00,57.0,19.0,-100.00,West,264,5.0,10.0,22,0.00,,,0.00,0.000000,,2013-06-03 04:23:00,
2013-06-02 22:33:00,57.0,19.0,-100.00,West,264,5.0,10.0,22,0.00,,,0.00,0.000000,,2013-06-03 04:33:00,
2013-06-02 22:42:00,57.0,19.0,-100.00,West,264,5.0,10.0,22,0.00,,,0.00,0.000000,,2013-06-03 04:42:00,
2013-06-02 22:53:00,57.0,19.0,-100.00,West,264,5.0,10.0,22,0.00,,,0.00,0.000000,,2013-06-03 04:53:00,
2013-06-02 23:22:00,54.0,19.0,-100.00,WNW,298,6.0,10.0,25,0.00,,,0.00,0.000000,,2013-06-03 05:22:00,
2013-06-02 23:32:00,54.0,19.0,-100.00,WNW,298,6.0,10.0,25,0.00,,,0.00,0.000000,,2013-06-03 05:32:00,
2013-06-02 23:42:00,54.0,19.0,-100.00,WNW,298,6.0,10.0,25,0.00,,,0.00,0.000000,,2013-06-03 05:42:00,
2013-06-02 23:52:00,54.0,19.0,-100.00,WNW,298,6.0,10.0,25,0.00,,,0.00,0.000000,,2013-06-03 05:52:00,